Macin — YP2199 — position and weather

sailwx.info

Track history (hours):
 
Tides and Currents Weather Stations Pressure Air Temp Water Temp Dewpoint Dewpoint Depression Visibility Wind Speed Wind Dir Waves Ship Positions

Macin

Last reported at 2018-Jul-15 05:51 UTC. Time now 2018-Jul-18 04:59 UTC.
Position N 44°17' E 028°05'.

Length 21 m; draft 1.6 m.

Type: Ship. MMSI: 264162199.

Date/timePositionNaut miles runAvg speedWind from/ knotsBaromVisibWave heightAir tempDewpointWater temp
2018-Jul-15 05:51N 44°17' E 028°05'1 3.2
2018-Jul-15 05:30N 44°16' E 028°06'2 3.4
2018-Jul-15 05:00N 44°16' E 028°08'2 3.3
2018-Jul-15 04:30N 44°16' E 028°11'2 3.1
2018-Jul-15 04:00N 44°16' E 028°13'2 3.4
2018-Jul-15 03:30N 44°15' E 028°15'2 3.4
2018-Jul-15 03:00N 44°15' E 028°18'1 1.4
2018-Jul-15 02:30N 44°15' E 028°19'0 0.0
2018-Jul-15 02:00N 44°15' E 028°19'0 0.0
2018-Jul-15 01:30N 44°15' E 028°19'0 0.0
2018-Jul-15 01:00N 44°15' E 028°19'0 0.0
2018-Jul-15 00:30N 44°15' E 028°19'0 0.0
2018-Jul-15 00:00N 44°15' E 028°19'0 0.0
2018-Jul-14 23:30N 44°15' E 028°19'0 0.0
2018-Jul-14 23:00N 44°15' E 028°19'0 0.0
2018-Jul-14 22:30N 44°15' E 028°19'0 0.0
2018-Jul-14 22:00N 44°15' E 028°19'0 0.0
2018-Jul-14 21:30N 44°15' E 028°19'0 0.0
2018-Jul-14 21:00N 44°15' E 028°19'0 0.0
2018-Jul-14 20:29N 44°15' E 028°19'0 0.0
2018-Jul-14 20:00N 44°15' E 028°19'1 1.9
2018-Jul-14 19:30N 44°15' E 028°20'1 2.7
2018-Jul-14 19:00N 44°14' E 028°22'1 1.2
2018-Jul-14 18:30N 44°14' E 028°22'2 3.7
2018-Jul-14 17:59N 44°12' E 028°23'2 3.8
2018-Jul-14 17:27N 44°10' E 028°24'6 3.2
2018-Jul-14 15:27N 44°06' E 028°31'2 3.7
2018-Jul-14 15:00N 44°06' E 028°33'2 3.7
2018-Jul-14 14:30N 44°06' E 028°36'2 1.6
2018-Jul-14 13:30N 44°06' E 028°38'0 0.1
2018-Jul-14 13:00N 44°06' E 028°38'0 0.0
2018-Jul-14 12:30N 44°06' E 028°38'0 0.5
2018-Jul-14 12:00N 44°06' E 028°38'1 2.9
2018-Jul-14 11:30N 44°07' E 028°39'0 0.0
2018-Jul-14 11:00N 44°07' E 028°39'0 0.0
2018-Jul-14 10:30N 44°07' E 028°39'0 0.1
2018-Jul-14 10:00N 44°07' E 028°39'0 0.1
2018-Jul-14 09:30N 44°07' E 028°39'0 0.0
2018-Jul-14 09:00N 44°07' E 028°39'0 0.2
2018-Jul-14 08:30N 44°07' E 028°39'0 0.6
2018-Jul-14 08:00N 44°08' E 028°39'0 0.6
2018-Jul-14 07:30N 44°07' E 028°39'0 0.5
2018-Jul-14 07:00N 44°08' E 028°39'0 0.4
2018-Jul-14 06:30N 44°07' E 028°39'0 0.7
2018-Jul-14 06:00N 44°07' E 028°39'1 2.1
2018-Jul-14 05:30N 44°08' E 028°39'1 2.1
2018-Jul-14 05:00N 44°07' E 028°39'1 1.5
2018-Jul-14 04:30N 44°07' E 028°39'0 0.5
2018-Jul-14 04:00N 44°07' E 028°39'2 4.1
2018-Jul-14 03:30N 44°09' E 028°40'0 0.1
2018-Jul-14 03:00N 44°09' E 028°40'1 2.4
2018-Jul-14 02:30N 44°08' E 028°39'0 0.9
2018-Jul-14 02:00N 44°08' E 028°39'0 0.0
2018-Jul-14 01:30N 44°08' E 028°39'0 0.0
2018-Jul-14 01:00N 44°08' E 028°39'0 0.0
2018-Jul-14 00:30N 44°08' E 028°39'0 0.0
2018-Jul-14 00:00N 44°08' E 028°39'0 0.0
2018-Jul-13 23:30N 44°08' E 028°39'0 0.0
2018-Jul-13 23:00N 44°08' E 028°39'0 0.0
2018-Jul-13 22:30N 44°08' E 028°39'0 0.0
2018-Jul-13 22:00N 44°08' E 028°39'0 0.0
2018-Jul-13 21:30N 44°08' E 028°39'0 0.0
2018-Jul-13 21:00N 44°08' E 028°39'0 0.0
2018-Jul-13 20:30N 44°08' E 028°39'0 0.0
2018-Jul-13 20:00N 44°08' E 028°39'0 0.0
2018-Jul-13 19:30N 44°08' E 028°39'0 0.0
2018-Jul-13 19:00N 44°08' E 028°39'0 0.0
2018-Jul-13 18:30N 44°08' E 028°39'0 0.0
2018-Jul-13 18:00N 44°08' E 028°39'0 0.0
2018-Jul-13 17:30N 44°08' E 028°39'1 1.1
2018-Jul-13 17:00N 44°07' E 028°39'0 0.4
2018-Jul-13 16:30N 44°07' E 028°39'0 0.0
2018-Jul-13 16:00N 44°07' E 028°39'0 0.5
2018-Jul-13 15:30N 44°07' E 028°39'0 0.6
2018-Jul-13 15:00N 44°08' E 028°39'0 0.3
2018-Jul-13 14:30N 44°08' E 028°39'0 0.0
2018-Jul-13 13:30N 44°08' E 028°39'0 0.6
2018-Jul-13 13:00N 44°07' E 028°39'0 0.6
2018-Jul-13 12:30N 44°08' E 028°39'0 0.4
2018-Jul-13 12:00N 44°07' E 028°39'0 0.4
2018-Jul-13 11:30N 44°08' E 028°39'0 0.0
2018-Jul-13 11:00N 44°08' E 028°39'0 0.5
2018-Jul-13 10:30N 44°07' E 028°39'1 1.3
2018-Jul-13 10:00N 44°08' E 028°39'1 1.3
2018-Jul-13 09:30N 44°07' E 028°39'0 0.2
2018-Jul-13 09:00N 44°07' E 028°39'1 2.3
2018-Jul-13 08:30N 44°09' E 028°39'1 1.7
2018-Jul-13 08:00N 44°09' E 028°40'0 0.6
2018-Jul-13 07:30N 44°10' E 028°39'1 2.4
2018-Jul-13 07:00N 44°08' E 028°40'1 2.5
2018-Jul-13 06:30N 44°07' E 028°39'0 0.6
2018-Jul-13 06:00N 44°07' E 028°39'0 0.2
2018-Jul-13 05:30N 44°07' E 028°39'0 0.4
2018-Jul-13 05:00N 44°07' E 028°39'1 2.6
2018-Jul-13 04:30N 44°09' E 028°40'1 2.5
2018-Jul-13 04:00N 44°10' E 028°39'1 2.5
2018-Jul-13 03:30N 44°08' E 028°39'1 2.2
2018-Jul-13 03:00N 44°07' E 028°39'0 0.5
2018-Jul-13 02:30N 44°08' E 028°39'0 0.7
2018-Jul-13 02:00N 44°07' E 028°39'0 0.8
2018-Jul-13 01:30N 44°07' E 028°39'2 4.2
2018-Jul-13 01:00N 44°09' E 028°40'1 1.2
2018-Jul-13 00:30N 44°09' E 028°40'1 2.7
2018-Jul-13 00:00N 44°07' E 028°39'1 1.0
2018-Jul-12 23:30N 44°08' E 028°39'0 0.0
2018-Jul-12 23:00N 44°08' E 028°39'0 0.0
2018-Jul-12 22:30N 44°08' E 028°39'0 0.0
2018-Jul-12 22:00N 44°08' E 028°39'0 0.0
2018-Jul-12 21:30N 44°08' E 028°39'1 1.1
2018-Jul-12 21:00N 44°07' E 028°39'0 0.0
2018-Jul-12 20:30N 44°07' E 028°39'1 1.1
2018-Jul-12 20:00N 44°07' E 028°39'0 0.2
2018-Jul-12 19:30N 44°07' E 028°39'0 0.9
2018-Jul-12 19:00N 44°07' E 028°39'1 1.2
2018-Jul-12 18:30N 44°07' E 028°39'0 0.7
2018-Jul-12 18:00N 44°07' E 028°39'0 0.8
2018-Jul-12 17:30N 44°07' E 028°39'0 0.1
2018-Jul-12 17:00N 44°07' E 028°39'1 2.3
2018-Jul-12 16:30N 44°09' E 028°40'1 2.6
2018-Jul-12 16:00N 44°10' E 028°39'0 0.7
2018-Jul-12 15:30N 44°09' E 028°39'2 4.0
2018-Jul-12 15:00N 44°07' E 028°39'1 1.3
2018-Jul-12 14:30N 44°07' E 028°39'1 2.3
2018-Jul-12 14:00N 44°08' E 028°39'0 0.0
2018-Jul-12 13:30N 44°08' E 028°39'0 0.0
2018-Jul-12 13:00N 44°08' E 028°39'0 0.0
2018-Jul-12 12:30N 44°08' E 028°39'0 0.8
2018-Jul-12 12:00N 44°08' E 028°39'0 0.8
2018-Jul-12 11:30N 44°08' E 028°39'1 1.3
2018-Jul-12 11:00N 44°09' E 028°39'1 2.3
2018-Jul-12 10:30N 44°07' E 028°39'1 1.8
2018-Jul-12 10:00N 44°07' E 028°40'1 1.1
2018-Jul-12 09:30N 44°06' E 028°40'1 2.1
2018-Jul-12 09:00N 44°07' E 028°39'1 1.3
2018-Jul-12 08:30N 44°07' E 028°39'0 0.8
2018-Jul-12 08:00N 44°07' E 028°39'1 1.3
2018-Jul-12 07:30N 44°07' E 028°39'0 0.1
2018-Jul-12 07:00N 44°07' E 028°39'1 2.0
2018-Jul-12 06:30N 44°08' E 028°39'0 0.4
2018-Jul-12 06:00N 44°08' E 028°39'0 0.6
2018-Jul-12 05:30N 44°07' E 028°39'0 0.3
2018-Jul-12 05:00N 44°07' E 028°39'1 1.8
2018-Jul-12 04:30N 44°08' E 028°39'1 2.4
2018-Jul-12 04:00N 44°10' E 028°39'0 1.0
2018-Jul-12 03:30N 44°10' E 028°39'1 2.8
2018-Jul-12 03:00N 44°09' E 028°40'1 1.1
2018-Jul-12 02:30N 44°08' E 028°40'1 2.0
2018-Jul-12 02:00N 44°08' E 028°39'0 0.7
2018-Jul-12 01:30N 44°07' E 028°39'1 1.6
2018-Jul-12 01:00N 44°07' E 028°39'0 0.9
2018-Jul-12 00:30N 44°07' E 028°40'0 0.9
2018-Jul-12 00:00N 44°06' E 028°40'1 1.2
2018-Jul-11 23:30N 44°07' E 028°39'1 1.6
2018-Jul-11 23:00N 44°07' E 028°39'0 0.5
2018-Jul-11 22:30N 44°08' E 028°39'0 0.1
2018-Jul-11 22:00N 44°08' E 028°39'0 0.4
2018-Jul-11 21:30N 44°07' E 028°39'1 1.7
2018-Jul-11 21:00N 44°07' E 028°39'0 0.5
2018-Jul-11 20:30N 44°07' E 028°39'1 1.5
2018-Jul-11 20:00N 44°06' E 028°40'0 0.2
2018-Jul-11 19:30N 44°06' E 028°40'0 0.2
2018-Jul-11 19:00N 44°06' E 028°40'1 1.1
2018-Jul-11 18:30N 44°06' E 028°40'0 0.5
2018-Jul-11 18:00N 44°06' E 028°40'1 2.4
2018-Jul-11 17:30N 44°07' E 028°39'0 0.1
2018-Jul-11 17:00N 44°07' E 028°39'1 2.8
2018-Jul-11 16:30N 44°06' E 028°40'0 0.1
2018-Jul-11 16:00N 44°06' E 028°40'1 2.3
2018-Jul-11 15:30N 44°07' E 028°39'1 1.5
2018-Jul-11 15:00N 44°07' E 028°39'1 1.5
2018-Jul-11 14:30N 44°07' E 028°39'1 1.5
2018-Jul-11 14:00N 44°06' E 028°40'1 2.5
2018-Jul-11 13:30N 44°07' E 028°39'2 3.1
2018-Jul-11 13:00N 44°09' E 028°39'1 1.2
2018-Jul-11 12:30N 44°08' E 028°39'1 1.0
2018-Jul-11 12:00N 44°07' E 028°39'1 2.0
2018-Jul-11 11:30N 44°08' E 028°39'1 1.9
2018-Jul-11 11:00N 44°08' E 028°39'1 1.8
2018-Jul-11 10:30N 44°08' E 028°39'1 1.3
2018-Jul-11 10:00N 44°08' E 028°39'2 3.5
2018-Jul-11 09:30N 44°06' E 028°40'0 0.1
2018-Jul-11 09:00N 44°06' E 028°40'0 0.5
2018-Jul-11 08:30N 44°06' E 028°40'0 0.6
2018-Jul-11 08:00N 44°06' E 028°40'1 1.9
2018-Jul-11 07:30N 44°07' E 028°40'1 1.5
2018-Jul-11 07:00N 44°07' E 028°39'1 1.6
2018-Jul-11 06:30N 44°07' E 028°39'0 0.3
2018-Jul-11 06:00N 44°07' E 028°39'2 3.2
2018-Jul-11 05:30N 44°09' E 028°40'1 2.3
2018-Jul-11 05:00N 44°09' E 028°39'1 1.8
2018-Jul-11 04:30N 44°09' E 028°39'1 2.1
2018-Jul-11 04:00N 44°07' E 028°39'1 1.9
2018-Jul-11 03:30N 44°07' E 028°39'0 0.5
2018-Jul-11 03:00N 44°07' E 028°39'1 1.9
2018-Jul-11 02:30N 44°06' E 028°40'0 0.8
2018-Jul-11 02:00N 44°06' E 028°40'0 0.7
2018-Jul-11 01:30N 44°07' E 028°40'1 1.7
2018-Jul-11 01:00N 44°07' E 028°39'0 0.4
2018-Jul-11 00:30N 44°08' E 028°39'1 1.9
2018-Jul-11 00:00N 44°08' E 028°39'1 2.1
2018-Jul-10 23:30N 44°07' E 028°39'0 0.2
2018-Jul-10 23:00N 44°08' E 028°39'0 0.2
2018-Jul-10 22:30N 44°07' E 028°39'0 0.5
2018-Jul-10 22:00N 44°08' E 028°39'0 0.3
2018-Jul-10 21:30N 44°08' E 028°39'0 0.9
2018-Jul-10 21:00N 44°08' E 028°39'0 0.0
2018-Jul-10 20:30N 44°08' E 028°39'0 0.0
2018-Jul-10 20:00N 44°08' E 028°39'0 0.0
2018-Jul-10 19:29N 44°08' E 028°39'0 0.0
2018-Jul-10 19:00N 44°08' E 028°39'0 0.0
2018-Jul-10 18:30N 44°08' E 028°39'1 1.3
2018-Jul-10 18:00N 44°09' E 028°40'1 1.6
2018-Jul-10 17:30N 44°09' E 028°40'0 0.5
2018-Jul-10 17:00N 44°09' E 028°40'2 3.2
2018-Jul-10 16:30N 44°08' E 028°39'0 0.8
2018-Jul-10 16:00N 44°07' E 028°39'1 1.2
2018-Jul-10 15:30N 44°07' E 028°39'0 0.6
2018-Jul-10 15:00N 44°07' E 028°39'1 2.7
2018-Jul-10 14:30N 44°08' E 028°39'0 0.9
2018-Jul-10 14:00N 44°08' E 028°39'1 1.9
2018-Jul-10 13:30N 44°09' E 028°39'1 2.4
2018-Jul-10 13:00N 44°09' E 028°40'1 1.1
2018-Jul-10 12:30N 44°08' E 028°39'2 3.2
2018-Jul-10 12:00N 44°07' E 028°39'1 1.2
2018-Jul-10 11:30N 44°06' E 028°39'1 1.3
2018-Jul-10 11:00N 44°07' E 028°39'1 1.5
2018-Jul-10 10:30N 44°08' E 028°39'0 0.1
2018-Jul-10 10:00N 44°08' E 028°39'1 1.7
2018-Jul-10 09:30N 44°08' E 028°39'1 1.8
2018-Jul-10 09:00N 44°09' E 028°40'0 0.1
2018-Jul-10 08:30N 44°09' E 028°40'0 0.9
2018-Jul-10 08:00N 44°09' E 028°39'0 0.6
2018-Jul-10 07:30N 44°09' E 028°39'1 2.2
2018-Jul-10 07:00N 44°09' E 028°40'2 3.0
2018-Jul-10 06:30N 44°07' E 028°39'1 1.3
2018-Jul-10 06:00N 44°08' E 028°39'0 0.0
2018-Jul-10 05:30N 44°08' E 028°39'0 0.0
2018-Jul-10 05:00N 44°08' E 028°39'0 0.0
2018-Jul-10 04:30N 44°08' E 028°39'0 0.0
2018-Jul-10 04:00N 44°08' E 028°39'0 0.0
2018-Jul-10 03:30N 44°08' E 028°39'0 0.0
2018-Jul-10 03:00N 44°08' E 028°39'0 0.0
2018-Jul-10 02:30N 44°08' E 028°39'0 0.0
2018-Jul-10 02:00N 44°08' E 028°39'0 0.0
2018-Jul-10 01:30N 44°08' E 028°39'0 0.0
2018-Jul-10 01:00N 44°08' E 028°39'1 1.5
2018-Jul-10 00:30N 44°07' E 028°39'1 1.4
2018-Jul-10 00:00N 44°07' E 028°40'1 1.1
2018-Jul-09 23:30N 44°06' E 028°40'0 0.4
2018-Jul-09 23:00N 44°06' E 028°40'1 2.2
2018-Jul-09 22:30N 44°07' E 028°39'0 0.2
2018-Jul-09 22:00N 44°07' E 028°39'1 2.3
2018-Jul-09 21:30N 44°06' E 028°40'1 2.0
2018-Jul-09 21:00N 44°07' E 028°39'1 2.2
2018-Jul-09 20:30N 44°08' E 028°39'0 0.0
2018-Jul-09 20:00N 44°08' E 028°39'0 0.0
2018-Jul-09 19:30N 44°08' E 028°39'0 0.0
2018-Jul-09 19:00N 44°08' E 028°39'0 0.0
2018-Jul-09 18:30N 44°08' E 028°39'0 0.0
2018-Jul-09 18:00N 44°08' E 028°39'0 0.0
2018-Jul-09 17:30N 44°08' E 028°39'0 0.0
2018-Jul-09 17:00N 44°08' E 028°39'0 0.0
2018-Jul-09 16:30N 44°08' E 028°39'0 0.5
2018-Jul-09 16:00N 44°08' E 028°39'0 1.0
2018-Jul-09 15:30N 44°07' E 028°39'0 0.4
2018-Jul-09 15:00N 44°07' E 028°39'2 3.9
2018-Jul-09 14:30N 44°09' E 028°40'0 0.8
2018-Jul-09 14:00N 44°09' E 028°40'1 2.7
2018-Jul-09 13:30N 44°08' E 028°39'0 0.9
2018-Jul-09 13:00N 44°07' E 028°39'2 4.0
2018-Jul-09 12:30N 44°06' E 028°40'1 1.3
2018-Jul-09 12:00N 44°06' E 028°40'1 2.2
2018-Jul-09 11:30N 44°07' E 028°39'0 0.3
2018-Jul-09 11:00N 44°07' E 028°39'0 0.4
2018-Jul-09 10:30N 44°07' E 028°39'0 0.0
2018-Jul-09 10:00N 44°07' E 028°39'0 0.1
2018-Jul-09 09:30N 44°07' E 028°39'1 2.9
2018-Jul-09 09:00N 44°06' E 028°38'1 1.8
2018-Jul-09 08:30N 44°06' E 028°37'0 0.1
2018-Jul-09 08:00N 44°06' E 028°37'1 2.9
2018-Jul-09 07:30N 44°06' E 028°35'7 3.3
2018-Jul-09 05:18N 44°09' E 028°26'1 3.9
2018-Jul-09 05:00N 44°10' E 028°25'2 3.8
2018-Jul-09 04:30N 44°12' E 028°24'2 4.0
2018-Jul-09 04:00N 44°14' E 028°22'2 3.8
2018-Jul-09 03:29N 44°15' E 028°21'2 3.8
2018-Jul-09 03:00N 44°15' E 028°18'1 1.0
2018-Jul-09 02:30N 44°15' E 028°17'0 0.0
2018-Jul-09 02:00N 44°15' E 028°17'0 0.0
2018-Jul-09 01:30N 44°15' E 028°17'0 0.0
2018-Jul-09 01:00N 44°15' E 028°17'0 0.0
2018-Jul-09 00:30N 44°15' E 028°17'0 0.0
2018-Jul-09 00:00N 44°15' E 028°17'0 0.0
2018-Jul-08 23:30N 44°15' E 028°17'0 0.0
2018-Jul-08 22:59N 44°15' E 028°17'0 0.0
2018-Jul-08 22:30N 44°15' E 028°17'0 0.0
2018-Jul-08 22:00N 44°15' E 028°17'0 0.0
2018-Jul-08 21:30N 44°15' E 028°17'0 0.0
2018-Jul-08 21:00N 44°15' E 028°17'0 0.0
2018-Jul-08 20:29N 44°15' E 028°17'0 0.0
2018-Jul-08 20:00N 44°15' E 028°17'0 0.0
2018-Jul-08 19:30N 44°15' E 028°17'0 0.0
2018-Jul-08 19:00N 44°15' E 028°17'1 2.5
2018-Jul-08 18:30N 44°15' E 028°16'2 3.9
2018-Jul-08 18:00N 44°16' E 028°13'2 3.8
2018-Jul-08 17:29N 44°16' E 028°10'2 3.9
2018-Jul-08 17:00N 44°16' E 028°08'2 4.0
2018-Jul-08 16:30N 44°17' E 028°05'0 0.0
2018-Jul-07 09:30N 44°17' E 028°05'2 4.6
2018-Jul-07 09:00N 44°16' E 028°08'2 4.7
2018-Jul-07 08:30N 44°16' E 028°11'2 4.8
2018-Jul-07 08:00N 44°15' E 028°14'2 4.7
2018-Jul-07 07:30N 44°15' E 028°17'2 4.7
2018-Jul-07 07:00N 44°15' E 028°21'2 4.7
2018-Jul-07 06:30N 44°13' E 028°23'2 4.5
2018-Jul-07 05:58N 44°14' E 028°26'4 4.6
2018-Jul-07 05:01N 44°16' E 028°31'0 4.8
2018-Jul-07 04:57N 44°16' E 028°32'1 1.6
2018-Jul-07 04:30N 44°16' E 028°33'1 2.7
2018-Jul-07 04:01N 44°16' E 028°35'2 4.9
2018-Jul-07 03:30N 44°18' E 028°37'2 5.0
2018-Jul-07 03:00N 44°20' E 028°38'1 2.1
2018-Jul-07 02:30N 44°21' E 028°38'0 0.0
2018-Jul-07 02:00N 44°21' E 028°38'0 0.0
2018-Jul-07 01:30N 44°21' E 028°38'0 0.0
2018-Jul-07 01:00N 44°21' E 028°38'0 0.0
2018-Jul-07 00:30N 44°21' E 028°38'0 0.0
2018-Jul-07 00:00N 44°21' E 028°38'0 0.0
2018-Jul-06 23:30N 44°21' E 028°38'0 0.0
2018-Jul-06 23:00N 44°21' E 028°38'0 0.0
2018-Jul-06 22:29N 44°21' E 028°38'0 0.0
2018-Jul-06 22:00N 44°21' E 028°38'0 0.0
2018-Jul-06 21:31N 44°21' E 028°38'0 0.0
2018-Jul-06 21:00N 44°21' E 028°38'0 0.0
2018-Jul-06 20:30N 44°21' E 028°38'0 0.0
2018-Jul-06 20:00N 44°21' E 028°38'0 0.0
2018-Jul-06 19:30N 44°21' E 028°38'0 0.0
2018-Jul-06 19:00N 44°21' E 028°38'0 0.0
2018-Jul-06 18:30N 44°21' E 028°38'0 0.0
2018-Jul-06 18:00N 44°21' E 028°38'0 0.0
2018-Jul-06 17:30N 44°21' E 028°38'0 0.0
2018-Jul-06 17:00N 44°21' E 028°38'0 0.0
2018-Jul-06 16:30N 44°21' E 028°38'0 0.0
2018-Jul-06 16:00N 44°21' E 028°38'0 0.0
2018-Jul-06 15:30N 44°21' E 028°38'0 0.0
2018-Jul-06 15:00N 44°21' E 028°38'0 0.0
2018-Jul-06 14:30N 44°21' E 028°38'0 0.0
2018-Jul-06 14:00N 44°21' E 028°38'0 0.0
2018-Jul-06 13:30N 44°21' E 028°38'0 0.0
2018-Jul-06 13:00N 44°21' E 028°38'0 0.0
2018-Jul-06 12:30N 44°21' E 028°38'0 0.0
2018-Jul-06 12:00N 44°21' E 028°38'0 0.0
2018-Jul-06 11:30N 44°21' E 028°38'0 0.0
2018-Jul-06 11:00N 44°21' E 028°38'0 0.0
2018-Jul-06 10:30N 44°21' E 028°38'0 0.0
2018-Jul-06 10:00N 44°21' E 028°38'0 0.0
2018-Jul-06 09:30N 44°21' E 028°38'0 0.0
2018-Jul-06 09:00N 44°21' E 028°38'0 0.0
2018-Jul-06 08:30N 44°21' E 028°38'0 0.0
2018-Jul-06 08:00N 44°21' E 028°38'0 0.0
2018-Jul-06 07:30N 44°21' E 028°38'1 2.6
2018-Jul-06 07:00N 44°20' E 028°37'2 4.6
2018-Jul-06 06:30N 44°18' E 028°37'2 4.4
2018-Jul-06 06:00N 44°16' E 028°35'2 3.1
2018-Jul-06 05:30N 44°16' E 028°33'0 0.3
2018-Jul-06 05:00N 44°16' E 028°32'0 0.0
2018-Jul-06 04:30N 44°16' E 028°32'0 0.0
2018-Jul-06 04:00N 44°16' E 028°32'0 0.0
2018-Jul-06 03:30N 44°16' E 028°32'0 0.0
2018-Jul-06 03:00N 44°16' E 028°32'0 0.0
2018-Jul-06 02:29N 44°16' E 028°32'0 0.0
2018-Jul-06 02:00N 44°16' E 028°32'0 0.0
2018-Jul-06 01:30N 44°16' E 028°32'0 0.0
2018-Jul-06 01:01N 44°16' E 028°32'0 0.0
2018-Jul-06 00:30N 44°16' E 028°32'0 0.0
2018-Jul-06 00:00N 44°16' E 028°32'0 0.0
2018-Jul-05 23:30N 44°16' E 028°32'0 0.0
2018-Jul-05 23:00N 44°16' E 028°32'0 0.0
2018-Jul-05 22:30N 44°16' E 028°32'0 0.0
2018-Jul-05 22:01N 44°16' E 028°32'0 0.0
2018-Jul-05 21:30N 44°16' E 028°32'0 0.0
2018-Jul-05 21:00N 44°16' E 028°32'0 0.0
2018-Jul-05 20:30N 44°16' E 028°32'0 0.0
2018-Jul-05 20:00N 44°16' E 028°32'0 0.0
2018-Jul-05 19:30N 44°16' E 028°32'0 0.0
2018-Jul-05 19:00N 44°16' E 028°32'0 0.0
2018-Jul-05 18:30N 44°16' E 028°32'1 2.5
2018-Jul-05 17:58N 44°16' E 028°31'3 4.5
2018-Jul-05 17:18N 44°14' E 028°27'1 4.4
2018-Jul-05 17:00N 44°14' E 028°26'2 4.2
2018-Jul-05 16:30N 44°13' E 028°23'2 4.3
2018-Jul-05 15:59N 44°15' E 028°21'2 4.5
2018-Jul-05 15:30N 44°15' E 028°18'2 4.6
2018-Jul-05 15:01N 44°15' E 028°15'5 4.8
2018-Jul-05 13:59N 44°16' E 028°08'  
Track history (hours):
 
Tides and Currents Weather Stations Pressure Air Temp Water Temp Dewpoint Dewpoint Depression Visibility Wind Speed Wind Dir Waves Ship Positions

Macin

Last reported at 2018-Jul-15 05:51 UTC. Time now 2018-Jul-18 04:59 UTC.
Position N 44°17' E 028°05'.

Length 21 m; draft 1.6 m.

Type: Ship. MMSI: 264162199.

Date/timePositionNaut miles runAvg speedWind from/ knotsBaromVisibWave heightAir tempDewpointWater temp
2018-Jul-15 05:51N 44°17' E 028°05'1 3.2
2018-Jul-15 05:30N 44°16' E 028°06'2 3.4
2018-Jul-15 05:00N 44°16' E 028°08'2 3.3
2018-Jul-15 04:30N 44°16' E 028°11'2 3.1
2018-Jul-15 04:00N 44°16' E 028°13'2 3.4
2018-Jul-15 03:30N 44°15' E 028°15'2 3.4
2018-Jul-15 03:00N 44°15' E 028°18'1 1.4
2018-Jul-15 02:30N 44°15' E 028°19'0 0.0
2018-Jul-15 02:00N 44°15' E 028°19'0 0.0
2018-Jul-15 01:30N 44°15' E 028°19'0 0.0
2018-Jul-15 01:00N 44°15' E 028°19'0 0.0
2018-Jul-15 00:30N 44°15' E 028°19'0 0.0
2018-Jul-15 00:00N 44°15' E 028°19'0 0.0
2018-Jul-14 23:30N 44°15' E 028°19'0 0.0
2018-Jul-14 23:00N 44°15' E 028°19'0 0.0
2018-Jul-14 22:30N 44°15' E 028°19'0 0.0
2018-Jul-14 22:00N 44°15' E 028°19'0 0.0
2018-Jul-14 21:30N 44°15' E 028°19'0 0.0
2018-Jul-14 21:00N 44°15' E 028°19'0 0.0
2018-Jul-14 20:29N 44°15' E 028°19'0 0.0
2018-Jul-14 20:00N 44°15' E 028°19'1 1.9
2018-Jul-14 19:30N 44°15' E 028°20'1 2.7
2018-Jul-14 19:00N 44°14' E 028°22'1 1.2
2018-Jul-14 18:30N 44°14' E 028°22'2 3.7
2018-Jul-14 17:59N 44°12' E 028°23'2 3.8
2018-Jul-14 17:27N 44°10' E 028°24'6 3.2
2018-Jul-14 15:27N 44°06' E 028°31'2 3.7
2018-Jul-14 15:00N 44°06' E 028°33'2 3.7
2018-Jul-14 14:30N 44°06' E 028°36'2 1.6
2018-Jul-14 13:30N 44°06' E 028°38'0 0.1
2018-Jul-14 13:00N 44°06' E 028°38'0 0.0
2018-Jul-14 12:30N 44°06' E 028°38'0 0.5
2018-Jul-14 12:00N 44°06' E 028°38'1 2.9
2018-Jul-14 11:30N 44°07' E 028°39'0 0.0
2018-Jul-14 11:00N 44°07' E 028°39'0 0.0
2018-Jul-14 10:30N 44°07' E 028°39'0 0.1
2018-Jul-14 10:00N 44°07' E 028°39'0 0.1
2018-Jul-14 09:30N 44°07' E 028°39'0 0.0
2018-Jul-14 09:00N 44°07' E 028°39'0 0.2
2018-Jul-14 08:30N 44°07' E 028°39'0 0.6
2018-Jul-14 08:00N 44°08' E 028°39'0 0.6
2018-Jul-14 07:30N 44°07' E 028°39'0 0.5
2018-Jul-14 07:00N 44°08' E 028°39'0 0.4
2018-Jul-14 06:30N 44°07' E 028°39'0 0.7
2018-Jul-14 06:00N 44°07' E 028°39'1 2.1
2018-Jul-14 05:30N 44°08' E 028°39'1 2.1
2018-Jul-14 05:00N 44°07' E 028°39'1 1.5
2018-Jul-14 04:30N 44°07' E 028°39'0 0.5
2018-Jul-14 04:00N 44°07' E 028°39'2 4.1
2018-Jul-14 03:30N 44°09' E 028°40'0 0.1
2018-Jul-14 03:00N 44°09' E 028°40'1 2.4
2018-Jul-14 02:30N 44°08' E 028°39'0 0.9
2018-Jul-14 02:00N 44°08' E 028°39'0 0.0
2018-Jul-14 01:30N 44°08' E 028°39'0 0.0
2018-Jul-14 01:00N 44°08' E 028°39'0 0.0
2018-Jul-14 00:30N 44°08' E 028°39'0 0.0
2018-Jul-14 00:00N 44°08' E 028°39'0 0.0
2018-Jul-13 23:30N 44°08' E 028°39'0 0.0
2018-Jul-13 23:00N 44°08' E 028°39'0 0.0
2018-Jul-13 22:30N 44°08' E 028°39'0 0.0
2018-Jul-13 22:00N 44°08' E 028°39'0 0.0
2018-Jul-13 21:30N 44°08' E 028°39'0 0.0
2018-Jul-13 21:00N 44°08' E 028°39'0 0.0
2018-Jul-13 20:30N 44°08' E 028°39'0 0.0
2018-Jul-13 20:00N 44°08' E 028°39'0 0.0
2018-Jul-13 19:30N 44°08' E 028°39'0 0.0
2018-Jul-13 19:00N 44°08' E 028°39'0 0.0
2018-Jul-13 18:30N 44°08' E 028°39'0 0.0
2018-Jul-13 18:00N 44°08' E 028°39'0 0.0
2018-Jul-13 17:30N 44°08' E 028°39'1 1.1
2018-Jul-13 17:00N 44°07' E 028°39'0 0.4
2018-Jul-13 16:30N 44°07' E 028°39'0 0.0
2018-Jul-13 16:00N 44°07' E 028°39'0 0.5
2018-Jul-13 15:30N 44°07' E 028°39'0 0.6
2018-Jul-13 15:00N 44°08' E 028°39'0 0.3
2018-Jul-13 14:30N 44°08' E 028°39'0 0.0
2018-Jul-13 13:30N 44°08' E 028°39'0 0.6
2018-Jul-13 13:00N 44°07' E 028°39'0 0.6
2018-Jul-13 12:30N 44°08' E 028°39'0 0.4
2018-Jul-13 12:00N 44°07' E 028°39'0 0.4
2018-Jul-13 11:30N 44°08' E 028°39'0 0.0
2018-Jul-13 11:00N 44°08' E 028°39'0 0.5
2018-Jul-13 10:30N 44°07' E 028°39'1 1.3
2018-Jul-13 10:00N 44°08' E 028°39'1 1.3
2018-Jul-13 09:30N 44°07' E 028°39'0 0.2
2018-Jul-13 09:00N 44°07' E 028°39'1 2.3
2018-Jul-13 08:30N 44°09' E 028°39'1 1.7
2018-Jul-13 08:00N 44°09' E 028°40'0 0.6
2018-Jul-13 07:30N 44°10' E 028°39'1 2.4
2018-Jul-13 07:00N 44°08' E 028°40'1 2.5
2018-Jul-13 06:30N 44°07' E 028°39'0 0.6
2018-Jul-13 06:00N 44°07' E 028°39'0 0.2
2018-Jul-13 05:30N 44°07' E 028°39'0 0.4
2018-Jul-13 05:00N 44°07' E 028°39'1 2.6
2018-Jul-13 04:30N 44°09' E 028°40'1 2.5
2018-Jul-13 04:00N 44°10' E 028°39'1 2.5
2018-Jul-13 03:30N 44°08' E 028°39'1 2.2
2018-Jul-13 03:00N 44°07' E 028°39'0 0.5
2018-Jul-13 02:30N 44°08' E 028°39'0 0.7
2018-Jul-13 02:00N 44°07' E 028°39'0 0.8
2018-Jul-13 01:30N 44°07' E 028°39'2 4.2
2018-Jul-13 01:00N 44°09' E 028°40'1 1.2
2018-Jul-13 00:30N 44°09' E 028°40'1 2.7
2018-Jul-13 00:00N 44°07' E 028°39'1 1.0
2018-Jul-12 23:30N 44°08' E 028°39'0 0.0
2018-Jul-12 23:00N 44°08' E 028°39'0 0.0
2018-Jul-12 22:30N 44°08' E 028°39'0 0.0
2018-Jul-12 22:00N 44°08' E 028°39'0 0.0
2018-Jul-12 21:30N 44°08' E 028°39'1 1.1
2018-Jul-12 21:00N 44°07' E 028°39'0 0.0
2018-Jul-12 20:30N 44°07' E 028°39'1 1.1
2018-Jul-12 20:00N 44°07' E 028°39'0 0.2
2018-Jul-12 19:30N 44°07' E 028°39'0 0.9
2018-Jul-12 19:00N 44°07' E 028°39'1 1.2
2018-Jul-12 18:30N 44°07' E 028°39'0 0.7
2018-Jul-12 18:00N 44°07' E 028°39'0 0.8
2018-Jul-12 17:30N 44°07' E 028°39'0 0.1
2018-Jul-12 17:00N 44°07' E 028°39'1 2.3
2018-Jul-12 16:30N 44°09' E 028°40'1 2.6
2018-Jul-12 16:00N 44°10' E 028°39'0 0.7
2018-Jul-12 15:30N 44°09' E 028°39'2 4.0
2018-Jul-12 15:00N 44°07' E 028°39'1 1.3
2018-Jul-12 14:30N 44°07' E 028°39'1 2.3
2018-Jul-12 14:00N 44°08' E 028°39'0 0.0
2018-Jul-12 13:30N 44°08' E 028°39'0 0.0
2018-Jul-12 13:00N 44°08' E 028°39'0 0.0
2018-Jul-12 12:30N 44°08' E 028°39'0 0.8
2018-Jul-12 12:00N 44°08' E 028°39'0 0.8
2018-Jul-12 11:30N 44°08' E 028°39'1 1.3
2018-Jul-12 11:00N 44°09' E 028°39'1 2.3
2018-Jul-12 10:30N 44°07' E 028°39'1 1.8
2018-Jul-12 10:00N 44°07' E 028°40'1 1.1
2018-Jul-12 09:30N 44°06' E 028°40'1 2.1
2018-Jul-12 09:00N 44°07' E 028°39'1 1.3
2018-Jul-12 08:30N 44°07' E 028°39'0 0.8
2018-Jul-12 08:00N 44°07' E 028°39'1 1.3
2018-Jul-12 07:30N 44°07' E 028°39'0 0.1
2018-Jul-12 07:00N 44°07' E 028°39'1 2.0
2018-Jul-12 06:30N 44°08' E 028°39'0 0.4
2018-Jul-12 06:00N 44°08' E 028°39'0 0.6
2018-Jul-12 05:30N 44°07' E 028°39'0 0.3
2018-Jul-12 05:00N 44°07' E 028°39'1 1.8
2018-Jul-12 04:30N 44°08' E 028°39'1 2.4
2018-Jul-12 04:00N 44°10' E 028°39'0 1.0
2018-Jul-12 03:30N 44°10' E 028°39'1 2.8
2018-Jul-12 03:00N 44°09' E 028°40'1 1.1
2018-Jul-12 02:30N 44°08' E 028°40'1 2.0
2018-Jul-12 02:00N 44°08' E 028°39'0 0.7
2018-Jul-12 01:30N 44°07' E 028°39'1 1.6
2018-Jul-12 01:00N 44°07' E 028°39'0 0.9
2018-Jul-12 00:30N 44°07' E 028°40'0 0.9
2018-Jul-12 00:00N 44°06' E 028°40'1 1.2
2018-Jul-11 23:30N 44°07' E 028°39'1 1.6
2018-Jul-11 23:00N 44°07' E 028°39'0 0.5
2018-Jul-11 22:30N 44°08' E 028°39'0 0.1
2018-Jul-11 22:00N 44°08' E 028°39'0 0.4
2018-Jul-11 21:30N 44°07' E 028°39'1 1.7
2018-Jul-11 21:00N 44°07' E 028°39'0 0.5
2018-Jul-11 20:30N 44°07' E 028°39'1 1.5
2018-Jul-11 20:00N 44°06' E 028°40'0 0.2
2018-Jul-11 19:30N 44°06' E 028°40'0 0.2
2018-Jul-11 19:00N 44°06' E 028°40'1 1.1
2018-Jul-11 18:30N 44°06' E 028°40'0 0.5
2018-Jul-11 18:00N 44°06' E 028°40'1 2.4
2018-Jul-11 17:30N 44°07' E 028°39'0 0.1
2018-Jul-11 17:00N 44°07' E 028°39'1 2.8
2018-Jul-11 16:30N 44°06' E 028°40'0 0.1
2018-Jul-11 16:00N 44°06' E 028°40'1 2.3
2018-Jul-11 15:30N 44°07' E 028°39'1 1.5
2018-Jul-11 15:00N 44°07' E 028°39'1 1.5
2018-Jul-11 14:30N 44°07' E 028°39'1 1.5
2018-Jul-11 14:00N 44°06' E 028°40'1 2.5
2018-Jul-11 13:30N 44°07' E 028°39'2 3.1
2018-Jul-11 13:00N 44°09' E 028°39'1 1.2
2018-Jul-11 12:30N 44°08' E 028°39'1 1.0
2018-Jul-11 12:00N 44°07' E 028°39'1 2.0
2018-Jul-11 11:30N 44°08' E 028°39'1 1.9
2018-Jul-11 11:00N 44°08' E 028°39'1 1.8
2018-Jul-11 10:30N 44°08' E 028°39'1 1.3
2018-Jul-11 10:00N 44°08' E 028°39'2 3.5
2018-Jul-11 09:30N 44°06' E 028°40'0 0.1
2018-Jul-11 09:00N 44°06' E 028°40'0 0.5
2018-Jul-11 08:30N 44°06' E 028°40'0 0.6
2018-Jul-11 08:00N 44°06' E 028°40'1 1.9
2018-Jul-11 07:30N 44°07' E 028°40'1 1.5
2018-Jul-11 07:00N 44°07' E 028°39'1 1.6
2018-Jul-11 06:30N 44°07' E 028°39'0 0.3
2018-Jul-11 06:00N 44°07' E 028°39'2 3.2
2018-Jul-11 05:30N 44°09' E 028°40'1 2.3
2018-Jul-11 05:00N 44°09' E 028°39'1 1.8
2018-Jul-11 04:30N 44°09' E 028°39'1 2.1
2018-Jul-11 04:00N 44°07' E 028°39'1 1.9
2018-Jul-11 03:30N 44°07' E 028°39'0 0.5
2018-Jul-11 03:00N 44°07' E 028°39'1 1.9
2018-Jul-11 02:30N 44°06' E 028°40'0 0.8
2018-Jul-11 02:00N 44°06' E 028°40'0 0.7
2018-Jul-11 01:30N 44°07' E 028°40'1 1.7
2018-Jul-11 01:00N 44°07' E 028°39'0 0.4
2018-Jul-11 00:30N 44°08' E 028°39'1 1.9
2018-Jul-11 00:00N 44°08' E 028°39'1 2.1
2018-Jul-10 23:30N 44°07' E 028°39'0 0.2
2018-Jul-10 23:00N 44°08' E 028°39'0 0.2
2018-Jul-10 22:30N 44°07' E 028°39'0 0.5
2018-Jul-10 22:00N 44°08' E 028°39'0 0.3
2018-Jul-10 21:30N 44°08' E 028°39'0 0.9
2018-Jul-10 21:00N 44°08' E 028°39'0 0.0
2018-Jul-10 20:30N 44°08' E 028°39'0 0.0
2018-Jul-10 20:00N 44°08' E 028°39'0 0.0
2018-Jul-10 19:29N 44°08' E 028°39'0 0.0
2018-Jul-10 19:00N 44°08' E 028°39'0 0.0
2018-Jul-10 18:30N 44°08' E 028°39'1 1.3
2018-Jul-10 18:00N 44°09' E 028°40'1 1.6
2018-Jul-10 17:30N 44°09' E 028°40'0 0.5
2018-Jul-10 17:00N 44°09' E 028°40'2 3.2
2018-Jul-10 16:30N 44°08' E 028°39'0 0.8
2018-Jul-10 16:00N 44°07' E 028°39'1 1.2
2018-Jul-10 15:30N 44°07' E 028°39'0 0.6
2018-Jul-10 15:00N 44°07' E 028°39'1 2.7
2018-Jul-10 14:30N 44°08' E 028°39'0 0.9
2018-Jul-10 14:00N 44°08' E 028°39'1 1.9
2018-Jul-10 13:30N 44°09' E 028°39'1 2.4
2018-Jul-10 13:00N 44°09' E 028°40'1 1.1
2018-Jul-10 12:30N 44°08' E 028°39'2 3.2
2018-Jul-10 12:00N 44°07' E 028°39'1 1.2
2018-Jul-10 11:30N 44°06' E 028°39'1 1.3
2018-Jul-10 11:00N 44°07' E 028°39'1 1.5
2018-Jul-10 10:30N 44°08' E 028°39'0 0.1
2018-Jul-10 10:00N 44°08' E 028°39'1 1.7
2018-Jul-10 09:30N 44°08' E 028°39'1 1.8
2018-Jul-10 09:00N 44°09' E 028°40'0 0.1
2018-Jul-10 08:30N 44°09' E 028°40'0 0.9
2018-Jul-10 08:00N 44°09' E 028°39'0 0.6
2018-Jul-10 07:30N 44°09' E 028°39'1 2.2
2018-Jul-10 07:00N 44°09' E 028°40'2 3.0
2018-Jul-10 06:30N 44°07' E 028°39'1 1.3
2018-Jul-10 06:00N 44°08' E 028°39'0 0.0
2018-Jul-10 05:30N 44°08' E 028°39'0 0.0
2018-Jul-10 05:00N 44°08' E 028°39'0 0.0
2018-Jul-10 04:30N 44°08' E 028°39'0 0.0
2018-Jul-10 04:00N 44°08' E 028°39'0 0.0
2018-Jul-10 03:30N 44°08' E 028°39'0 0.0
2018-Jul-10 03:00N 44°08' E 028°39'0 0.0
2018-Jul-10 02:30N 44°08' E 028°39'0 0.0
2018-Jul-10 02:00N 44°08' E 028°39'0 0.0
2018-Jul-10 01:30N 44°08' E 028°39'0 0.0
2018-Jul-10 01:00N 44°08' E 028°39'1 1.5
2018-Jul-10 00:30N 44°07' E 028°39'1 1.4
2018-Jul-10 00:00N 44°07' E 028°40'1 1.1
2018-Jul-09 23:30N 44°06' E 028°40'0 0.4
2018-Jul-09 23:00N 44°06' E 028°40'1 2.2
2018-Jul-09 22:30N 44°07' E 028°39'0 0.2
2018-Jul-09 22:00N 44°07' E 028°39'1 2.3
2018-Jul-09 21:30N 44°06' E 028°40'1 2.0
2018-Jul-09 21:00N 44°07' E 028°39'1 2.2
2018-Jul-09 20:30N 44°08' E 028°39'0 0.0
2018-Jul-09 20:00N 44°08' E 028°39'0 0.0
2018-Jul-09 19:30N 44°08' E 028°39'0 0.0
2018-Jul-09 19:00N 44°08' E 028°39'0 0.0
2018-Jul-09 18:30N 44°08' E 028°39'0 0.0
2018-Jul-09 18:00N 44°08' E 028°39'0 0.0
2018-Jul-09 17:30N 44°08' E 028°39'0 0.0
2018-Jul-09 17:00N 44°08' E 028°39'0 0.0
2018-Jul-09 16:30N 44°08' E 028°39'0 0.5
2018-Jul-09 16:00N 44°08' E 028°39'0 1.0
2018-Jul-09 15:30N 44°07' E 028°39'0 0.4
2018-Jul-09 15:00N 44°07' E 028°39'2 3.9
2018-Jul-09 14:30N 44°09' E 028°40'0 0.8
2018-Jul-09 14:00N 44°09' E 028°40'1 2.7
2018-Jul-09 13:30N 44°08' E 028°39'0 0.9
2018-Jul-09 13:00N 44°07' E 028°39'2 4.0
2018-Jul-09 12:30N 44°06' E 028°40'1 1.3
2018-Jul-09 12:00N 44°06' E 028°40'1 2.2
2018-Jul-09 11:30N 44°07' E 028°39'0 0.3
2018-Jul-09 11:00N 44°07' E 028°39'0 0.4
2018-Jul-09 10:30N 44°07' E 028°39'0 0.0
2018-Jul-09 10:00N 44°07' E 028°39'0 0.1
2018-Jul-09 09:30N 44°07' E 028°39'1 2.9
2018-Jul-09 09:00N 44°06' E 028°38'1 1.8
2018-Jul-09 08:30N 44°06' E 028°37'0 0.1
2018-Jul-09 08:00N 44°06' E 028°37'1 2.9
2018-Jul-09 07:30N 44°06' E 028°35'7 3.3
2018-Jul-09 05:18N 44°09' E 028°26'1 3.9
2018-Jul-09 05:00N 44°10' E 028°25'2 3.8
2018-Jul-09 04:30N 44°12' E 028°24'2 4.0
2018-Jul-09 04:00N 44°14' E 028°22'2 3.8
2018-Jul-09 03:29N 44°15' E 028°21'2 3.8
2018-Jul-09 03:00N 44°15' E 028°18'1 1.0
2018-Jul-09 02:30N 44°15' E 028°17'0 0.0
2018-Jul-09 02:00N 44°15' E 028°17'0 0.0
2018-Jul-09 01:30N 44°15' E 028°17'0 0.0
2018-Jul-09 01:00N 44°15' E 028°17'0 0.0
2018-Jul-09 00:30N 44°15' E 028°17'0 0.0
2018-Jul-09 00:00N 44°15' E 028°17'0 0.0
2018-Jul-08 23:30N 44°15' E 028°17'0 0.0
2018-Jul-08 22:59N 44°15' E 028°17'0 0.0
2018-Jul-08 22:30N 44°15' E 028°17'0 0.0
2018-Jul-08 22:00N 44°15' E 028°17'0 0.0
2018-Jul-08 21:30N 44°15' E 028°17'0 0.0
2018-Jul-08 21:00N 44°15' E 028°17'0 0.0
2018-Jul-08 20:29N 44°15' E 028°17'0 0.0
2018-Jul-08 20:00N 44°15' E 028°17'0 0.0
2018-Jul-08 19:30N 44°15' E 028°17'0 0.0
2018-Jul-08 19:00N 44°15' E 028°17'1 2.5
2018-Jul-08 18:30N 44°15' E 028°16'2 3.9
2018-Jul-08 18:00N 44°16' E 028°13'2 3.8
2018-Jul-08 17:29N 44°16' E 028°10'2 3.9
2018-Jul-08 17:00N 44°16' E 028°08'2 4.0
2018-Jul-08 16:30N 44°17' E 028°05'0 0.0
2018-Jul-07 09:30N 44°17' E 028°05'2 4.6
2018-Jul-07 09:00N 44°16' E 028°08'2 4.7
2018-Jul-07 08:30N 44°16' E 028°11'2 4.8
2018-Jul-07 08:00N 44°15' E 028°14'2 4.7
2018-Jul-07 07:30N 44°15' E 028°17'2 4.7
2018-Jul-07 07:00N 44°15' E 028°21'2 4.7
2018-Jul-07 06:30N 44°13' E 028°23'2 4.5
2018-Jul-07 05:58N 44°14' E 028°26'4 4.6
2018-Jul-07 05:01N 44°16' E 028°31'0 4.8
2018-Jul-07 04:57N 44°16' E 028°32'1 1.6
2018-Jul-07 04:30N 44°16' E 028°33'1 2.7
2018-Jul-07 04:01N 44°16' E 028°35'2 4.9
2018-Jul-07 03:30N 44°18' E 028°37'2 5.0
2018-Jul-07 03:00N 44°20' E 028°38'1 2.1
2018-Jul-07 02:30N 44°21' E 028°38'0 0.0
2018-Jul-07 02:00N 44°21' E 028°38'0 0.0
2018-Jul-07 01:30N 44°21' E 028°38'0 0.0
2018-Jul-07 01:00N 44°21' E 028°38'0 0.0
2018-Jul-07 00:30N 44°21' E 028°38'0 0.0
2018-Jul-07 00:00N 44°21' E 028°38'0 0.0
2018-Jul-06 23:30N 44°21' E 028°38'0 0.0
2018-Jul-06 23:00N 44°21' E 028°38'0 0.0
2018-Jul-06 22:29N 44°21' E 028°38'0 0.0
2018-Jul-06 22:00N 44°21' E 028°38'0 0.0
2018-Jul-06 21:31N 44°21' E 028°38'0 0.0
2018-Jul-06 21:00N 44°21' E 028°38'0 0.0
2018-Jul-06 20:30N 44°21' E 028°38'0 0.0
2018-Jul-06 20:00N 44°21' E 028°38'0 0.0
2018-Jul-06 19:30N 44°21' E 028°38'0 0.0
2018-Jul-06 19:00N 44°21' E 028°38'0 0.0
2018-Jul-06 18:30N 44°21' E 028°38'0 0.0
2018-Jul-06 18:00N 44°21' E 028°38'0 0.0
2018-Jul-06 17:30N 44°21' E 028°38'0 0.0
2018-Jul-06 17:00N 44°21' E 028°38'0 0.0
2018-Jul-06 16:30N 44°21' E 028°38'0 0.0
2018-Jul-06 16:00N 44°21' E 028°38'0 0.0
2018-Jul-06 15:30N 44°21' E 028°38'0 0.0
2018-Jul-06 15:00N 44°21' E 028°38'0 0.0
2018-Jul-06 14:30N 44°21' E 028°38'0 0.0
2018-Jul-06 14:00N 44°21' E 028°38'0 0.0
2018-Jul-06 13:30N 44°21' E 028°38'0 0.0
2018-Jul-06 13:00N 44°21' E 028°38'0 0.0
2018-Jul-06 12:30N 44°21' E 028°38'0 0.0
2018-Jul-06 12:00N 44°21' E 028°38'0 0.0
2018-Jul-06 11:30N 44°21' E 028°38'0 0.0
2018-Jul-06 11:00N 44°21' E 028°38'0 0.0
2018-Jul-06 10:30N 44°21' E 028°38'0 0.0
2018-Jul-06 10:00N 44°21' E 028°38'0 0.0
2018-Jul-06 09:30N 44°21' E 028°38'0 0.0
2018-Jul-06 09:00N 44°21' E 028°38'0 0.0
2018-Jul-06 08:30N 44°21' E 028°38'0 0.0
2018-Jul-06 08:00N 44°21' E 028°38'0 0.0
2018-Jul-06 07:30N 44°21' E 028°38'1 2.6
2018-Jul-06 07:00N 44°20' E 028°37'2 4.6
2018-Jul-06 06:30N 44°18' E 028°37'2 4.4
2018-Jul-06 06:00N 44°16' E 028°35'2 3.1
2018-Jul-06 05:30N 44°16' E 028°33'0 0.3
2018-Jul-06 05:00N 44°16' E 028°32'0 0.0
2018-Jul-06 04:30N 44°16' E 028°32'0 0.0
2018-Jul-06 04:00N 44°16' E 028°32'0 0.0
2018-Jul-06 03:30N 44°16' E 028°32'0 0.0
2018-Jul-06 03:00N 44°16' E 028°32'0 0.0
2018-Jul-06 02:29N 44°16' E 028°32'0 0.0
2018-Jul-06 02:00N 44°16' E 028°32'0 0.0
2018-Jul-06 01:30N 44°16' E 028°32'0 0.0
2018-Jul-06 01:01N 44°16' E 028°32'0 0.0
2018-Jul-06 00:30N 44°16' E 028°32'0 0.0
2018-Jul-06 00:00N 44°16' E 028°32'0 0.0
2018-Jul-05 23:30N 44°16' E 028°32'0 0.0
2018-Jul-05 23:00N 44°16' E 028°32'0 0.0
2018-Jul-05 22:30N 44°16' E 028°32'0 0.0
2018-Jul-05 22:01N 44°16' E 028°32'0 0.0
2018-Jul-05 21:30N 44°16' E 028°32'0 0.0
2018-Jul-05 21:00N 44°16' E 028°32'0 0.0
2018-Jul-05 20:30N 44°16' E 028°32'0 0.0
2018-Jul-05 20:00N 44°16' E 028°32'0 0.0
2018-Jul-05 19:30N 44°16' E 028°32'0 0.0
2018-Jul-05 19:00N 44°16' E 028°32'0 0.0
2018-Jul-05 18:30N 44°16' E 028°32'1 2.5
2018-Jul-05 17:58N 44°16' E 028°31'3 4.5
2018-Jul-05 17:18N 44°14' E 028°27'1 4.4
2018-Jul-05 17:00N 44°14' E 028°26'2 4.2
2018-Jul-05 16:30N 44°13' E 028°23'2 4.3
2018-Jul-05 15:59N 44°15' E 028°21'2 4.5
2018-Jul-05 15:30N 44°15' E 028°18'2 4.6
2018-Jul-05 15:01N 44°15' E 028°15'5 4.8
2018-Jul-05 13:59N 44°16' E 028°08'  

Dump ship's entire track history